Search for airport 
image banner adimage banner adimage banner ad
image banner ad

77PN - Gilfert

Located in Benfer, United States

ICAO - 77PN, IATA -

Data provided by Airmate  

General information

Coordinates: N40°47'2" W77°12'24"
Elevation is 630 feet MSL.
Magnetic variation is -10° East
View others Airports in Pennsylvania

Operational data

Special qualification required
Current time UTC:
Current local time:
Weather at : KSEG - Penn Valley ( 29 km )
METAR: KSEG 071153Z AUTO 33003KT 10SM CLR 08/04 A2993 RMK AO2 SLP134 T00780039 10078 20028 58002
View NOTAMs / SUP AIP / TFR affecting this airport [VIEW]
Communications frequencies: [VIEW]

Runways:

RWY identifierQFULength (ft)Width (ft)SurfaceLDA (ft)
102000100GRASS
282000100GRASS

Airport contact information

Address: Benfer United States

Satellite view of 77PN